sensor_id;sensor_type;location;lat;lon;timestamp;P1;durP1;ratioP1;P2;durP2;ratioP2
40537;SDS011;27925;41.874;12.526;2022-08-05T00:01:41;4.45;;;2.20;;
40537;SDS011;27925;41.874;12.526;2022-08-05T00:04:06;7.57;;;2.55;;
40537;SDS011;27925;41.874;12.526;2022-08-05T00:06:32;7.75;;;2.90;;
40537;SDS011;27925;41.874;12.526;2022-08-05T00:08:58;4.75;;;2.25;;
40537;SDS011;27925;41.874;12.526;2022-08-05T00:11:25;8.80;;;2.17;;
40537;SDS011;27925;41.874;12.526;2022-08-05T00:13:51;5.00;;;2.22;;
40537;SDS011;27925;41.874;12.526;2022-08-05T00:16:17;6.20;;;2.22;;
40537;SDS011;27925;41.874;12.526;2022-08-05T00:18:47;6.28;;;2.45;;
40537;SDS011;27925;41.874;12.526;2022-08-05T00:21:14;7.05;;;2.30;;
40537;SDS011;27925;41.874;12.526;2022-08-05T00:23:42;5.13;;;2.17;;
40537;SDS011;27925;41.874;12.526;2022-08-05T00:26:09;6.78;;;2.53;;
40537;SDS011;27925;41.874;12.526;2022-08-05T00:28:35;9.80;;;2.58;;
40537;SDS011;27925;41.874;12.526;2022-08-05T00:31:02;5.38;;;2.92;;
40537;SDS011;27925;41.874;12.526;2022-08-05T00:33:29;6.65;;;2.35;;
40537;SDS011;27925;41.874;12.526;2022-08-05T00:35:55;4.32;;;2.28;;
40537;SDS011;27925;41.874;12.526;2022-08-05T00:38:22;3.88;;;2.22;;
40537;SDS011;27925;41.874;12.526;2022-08-05T00:40:49;7.72;;;2.30;;
40537;SDS011;27925;41.874;12.526;2022-08-05T00:43:17;5.60;;;2.40;;
40537;SDS011;27925;41.874;12.526;2022-08-05T00:45:43;4.78;;;2.40;;
40537;SDS011;27925;41.874;12.526;2022-08-05T00:48:10;8.18;;;2.00;;
40537;SDS011;27925;41.874;12.526;2022-08-05T00:50:41;4.63;;;2.40;;
40537;SDS011;27925;41.874;12.526;2022-08-05T00:53:09;6.57;;;2.22;;
40537;SDS011;27925;41.874;12.526;2022-08-05T00:55:35;3.97;;;2.38;;
40537;SDS011;27925;41.874;12.526;2022-08-05T00:58:01;5.85;;;2.42;;
40537;SDS011;27925;41.874;12.526;2022-08-05T01:00:27;4.55;;;2.40;;
40537;SDS011;27925;41.874;12.526;2022-08-05T01:02:55;4.80;;;2.60;;
40537;SDS011;27925;41.874;12.526;2022-08-05T01:05:22;3.85;;;2.20;;
40537;SDS011;27925;41.874;12.526;2022-08-05T01:07:48;6.88;;;2.67;;
40537;SDS011;27925;41.874;12.526;2022-08-05T01:10:17;8.75;;;3.10;;
40537;SDS011;27925;41.874;12.526;2022-08-05T01:12:47;4.10;;;2.38;;
40537;SDS011;27925;41.874;12.526;2022-08-05T01:15:20;5.50;;;2.17;;
40537;SDS011;27925;41.874;12.526;2022-08-05T01:17:50;5.95;;;2.55;;
40537;SDS011;27925;41.874;12.526;2022-08-05T01:20:25;4.88;;;2.78;;
40537;SDS011;27925;41.874;12.526;2022-08-05T01:31:01;4.60;;;2.55;;
40537;SDS011;27925;41.874;12.526;2022-08-05T01:33:37;7.28;;;2.35;;
40537;SDS011;27925;41.874;12.526;2022-08-05T01:36:09;6.07;;;2.25;;
40537;SDS011;27925;41.874;12.526;2022-08-05T01:38:39;5.00;;;2.65;;
40537;SDS011;27925;41.874;12.526;2022-08-05T01:41:06;9.70;;;2.55;;
40537;SDS011;27925;41.874;12.526;2022-08-05T01:43:32;5.75;;;2.92;;
40537;SDS011;27925;41.874;12.526;2022-08-05T01:45:59;6.00;;;2.70;;
40537;SDS011;27925;41.874;12.526;2022-08-05T01:48:26;5.10;;;2.88;;
40537;SDS011;27925;41.874;12.526;2022-08-05T01:50:54;4.50;;;2.78;;
40537;SDS011;27925;41.874;12.526;2022-08-05T01:53:21;6.22;;;2.78;;
40537;SDS011;27925;41.874;12.526;2022-08-05T01:55:48;6.75;;;2.95;;
40537;SDS011;27925;41.874;12.526;2022-08-05T01:58:16;5.60;;;2.70;;
40537;SDS011;27925;41.874;12.526;2022-08-05T02:00:44;5.22;;;3.13;;
40537;SDS011;27925;41.874;12.526;2022-08-05T02:06:15;7.95;;;2.60;;
40537;SDS011;27925;41.874;12.526;2022-08-05T02:08:42;4.45;;;2.80;;
40537;SDS011;27925;41.874;12.526;2022-08-05T02:11:10;7.03;;;3.08;;
40537;SDS011;27925;41.874;12.526;2022-08-05T02:13:44;8.35;;;3.20;;
40537;SDS011;27925;41.874;12.526;2022-08-05T02:16:21;5.40;;;2.65;;
40537;SDS011;27925;41.874;12.526;2022-08-05T02:19:10;8.23;;;2.70;;
40537;SDS011;27925;41.874;12.526;2022-08-05T02:21:38;4.65;;;2.40;;
40537;SDS011;27925;41.874;12.526;2022-08-05T02:24:20;5.40;;;2.85;;
40537;SDS011;27925;41.874;12.526;2022-08-05T02:26:52;7.63;;;2.67;;
40537;SDS011;27925;41.874;12.526;2022-08-05T02:29:22;5.55;;;2.80;;
40537;SDS011;27925;41.874;12.526;2022-08-05T02:31:50;7.35;;;2.83;;
40537;SDS011;27925;41.874;12.526;2022-08-05T02:34:19;4.13;;;2.42;;
40537;SDS011;27925;41.874;12.526;2022-08-05T02:36:50;6.22;;;2.85;;
40537;SDS011;27925;41.874;12.526;2022-08-05T02:39:20;4.28;;;2.17;;
40537;SDS011;27925;41.874;12.526;2022-08-05T02:41:48;6.20;;;2.47;;
40537;SDS011;27925;41.874;12.526;2022-08-05T02:44:16;6.60;;;2.65;;
40537;SDS011;27925;41.874;12.526;2022-08-05T02:46:44;6.03;;;2.50;;
40537;SDS011;27925;41.874;12.526;2022-08-05T02:49:13;7.28;;;3.03;;
40537;SDS011;27925;41.874;12.526;2022-08-05T02:51:41;5.65;;;2.88;;
40537;SDS011;27925;41.874;12.526;2022-08-05T02:54:07;7.07;;;3.05;;
40537;SDS011;27925;41.874;12.526;2022-08-05T02:56:35;5.82;;;2.63;;
40537;SDS011;27925;41.874;12.526;2022-08-05T02:59:03;5.65;;;2.47;;
40537;SDS011;27925;41.874;12.526;2022-08-05T03:01:29;6.90;;;2.88;;
40537;SDS011;27925;41.874;12.526;2022-08-05T03:04:00;5.22;;;2.97;;
40537;SDS011;27925;41.874;12.526;2022-08-05T03:06:27;6.78;;;3.15;;
40537;SDS011;27925;41.874;12.526;2022-08-05T03:08:53;5.97;;;2.78;;
40537;SDS011;27925;41.874;12.526;2022-08-05T03:11:20;4.70;;;3.05;;
40537;SDS011;27925;41.874;12.526;2022-08-05T03:13:48;8.02;;;2.92;;
40537;SDS011;27925;41.874;12.526;2022-08-05T03:16:14;5.72;;;2.85;;
40537;SDS011;27925;41.874;12.526;2022-08-05T03:18:40;9.40;;;2.65;;
40537;SDS011;27925;41.874;12.526;2022-08-05T03:21:06;5.35;;;2.60;;
40537;SDS011;27925;41.874;12.526;2022-08-05T03:23:32;8.73;;;2.72;;
40537;SDS011;27925;41.874;12.526;2022-08-05T03:25:59;8.05;;;2.90;;
40537;SDS011;27925;41.874;12.526;2022-08-05T03:28:25;7.28;;;2.58;;
40537;SDS011;27925;41.874;12.526;2022-08-05T03:30:52;8.43;;;2.60;;
40537;SDS011;27925;41.874;12.526;2022-08-05T03:33:18;5.78;;;2.60;;
40537;SDS011;27925;41.874;12.526;2022-08-05T03:35:45;9.95;;;3.47;;
40537;SDS011;27925;41.874;12.526;2022-08-05T03:38:12;7.10;;;2.72;;
40537;SDS011;27925;41.874;12.526;2022-08-05T03:40:42;6.47;;;2.50;;
40537;SDS011;27925;41.874;12.526;2022-08-05T03:43:08;7.72;;;2.63;;
40537;SDS011;27925;41.874;12.526;2022-08-05T03:45:34;7.03;;;2.47;;
40537;SDS011;27925;41.874;12.526;2022-08-05T03:48:00;5.28;;;2.67;;
40537;SDS011;27925;41.874;12.526;2022-08-05T03:50:27;6.32;;;2.60;;
40537;SDS011;27925;41.874;12.526;2022-08-05T03:53:09;7.60;;;2.58;;
40537;SDS011;27925;41.874;12.526;2022-08-05T03:55:38;6.00;;;2.80;;
40537;SDS011;27925;41.874;12.526;2022-08-05T03:58:11;7.65;;;2.60;;
40537;SDS011;27925;41.874;12.526;2022-08-05T04:00:40;6.20;;;2.17;;
40537;SDS011;27925;41.874;12.526;2022-08-05T04:03:09;6.55;;;3.40;;
40537;SDS011;27925;41.874;12.526;2022-08-05T04:05:37;6.07;;;3.05;;
40537;SDS011;27925;41.874;12.526;2022-08-05T04:08:06;7.97;;;2.83;;
40537;SDS011;27925;41.874;12.526;2022-08-05T04:10:33;8.85;;;3.17;;
40537;SDS011;27925;41.874;12.526;2022-08-05T04:13:00;13.10;;;2.80;;
40537;SDS011;27925;41.874;12.526;2022-08-05T04:15:26;9.98;;;3.40;;
40537;SDS011;27925;41.874;12.526;2022-08-05T04:17:52;9.63;;;3.10;;
40537;SDS011;27925;41.874;12.526;2022-08-05T04:20:20;7.22;;;3.60;;
40537;SDS011;27925;41.874;12.526;2022-08-05T04:22:47;9.00;;;3.25;;
40537;SDS011;27925;41.874;12.526;2022-08-05T04:25:13;7.32;;;3.10;;
40537;SDS011;27925;41.874;12.526;2022-08-05T04:27:39;9.77;;;3.83;;
40537;SDS011;27925;41.874;12.526;2022-08-05T04:30:06;7.63;;;3.17;;
40537;SDS011;27925;41.874;12.526;2022-08-05T04:32:32;9.55;;;3.60;;
40537;SDS011;27925;41.874;12.526;2022-08-05T04:34:58;8.43;;;3.45;;
40537;SDS011;27925;41.874;12.526;2022-08-05T04:37:24;7.72;;;3.35;;
40537;SDS011;27925;41.874;12.526;2022-08-05T04:39:51;10.25;;;4.40;;
40537;SDS011;27925;41.874;12.526;2022-08-05T04:42:17;7.43;;;3.35;;
40537;SDS011;27925;41.874;12.526;2022-08-05T04:44:43;6.43;;;2.90;;
40537;SDS011;27925;41.874;12.526;2022-08-05T04:47:09;9.10;;;3.42;;
40537;SDS011;27925;41.874;12.526;2022-08-05T04:49:35;10.68;;;3.60;;
40537;SDS011;27925;41.874;12.526;2022-08-05T04:52:05;9.50;;;3.78;;
40537;SDS011;27925;41.874;12.526;2022-08-05T04:54:31;7.78;;;3.33;;
40537;SDS011;27925;41.874;12.526;2022-08-05T04:56:56;7.00;;;3.53;;
40537;SDS011;27925;41.874;12.526;2022-08-05T04:59:23;6.80;;;3.58;;
40537;SDS011;27925;41.874;12.526;2022-08-05T05:01:49;12.75;;;3.70;;
40537;SDS011;27925;41.874;12.526;2022-08-05T05:04:15;9.00;;;3.42;;
40537;SDS011;27925;41.874;12.526;2022-08-05T05:06:41;8.35;;;3.00;;
40537;SDS011;27925;41.874;12.526;2022-08-05T05:09:09;10.60;;;4.03;;
40537;SDS011;27925;41.874;12.526;2022-08-05T05:11:35;7.65;;;3.25;;
40537;SDS011;27925;41.874;12.526;2022-08-05T05:14:01;11.38;;;3.42;;
40537;SDS011;27925;41.874;12.526;2022-08-05T05:16:28;9.70;;;3.20;;
40537;SDS011;27925;41.874;12.526;2022-08-05T05:18:58;11.52;;;3.50;;
40537;SDS011;27925;41.874;12.526;2022-08-05T05:21:25;8.60;;;3.20;;
40537;SDS011;27925;41.874;12.526;2022-08-05T05:23:51;6.32;;;2.90;;
40537;SDS011;27925;41.874;12.526;2022-08-05T05:26:17;7.50;;;2.42;;
40537;SDS011;27925;41.874;12.526;2022-08-05T05:28:44;10.80;;;2.88;;
40537;SDS011;27925;41.874;12.526;2022-08-05T05:31:09;15.27;;;3.55;;
40537;SDS011;27925;41.874;12.526;2022-08-05T05:33:35;13.77;;;3.35;;
40537;SDS011;27925;41.874;12.526;2022-08-05T05:36:01;11.82;;;3.40;;
40537;SDS011;27925;41.874;12.526;2022-08-05T05:38:31;12.18;;;3.30;;
40537;SDS011;27925;41.874;12.526;2022-08-05T05:40:58;12.45;;;3.30;;
40537;SDS011;27925;41.874;12.526;2022-08-05T05:43:25;5.88;;;3.15;;
40537;SDS011;27925;41.874;12.526;2022-08-05T05:45:51;9.02;;;3.30;;
40537;SDS011;27925;41.874;12.526;2022-08-05T05:48:18;8.98;;;3.15;;
40537;SDS011;27925;41.874;12.526;2022-08-05T05:50:44;9.13;;;3.17;;
40537;SDS011;27925;41.874;12.526;2022-08-05T05:55:47;7.18;;;2.72;;
40537;SDS011;27925;41.874;12.526;2022-08-05T05:58:13;12.43;;;3.20;;
40537;SDS011;27925;41.874;12.526;2022-08-05T06:00:39;10.63;;;3.58;;
40537;SDS011;27925;41.874;12.526;2022-08-05T06:03:05;12.32;;;3.45;;
40537;SDS011;27925;41.874;12.526;2022-08-05T06:05:30;14.68;;;4.03;;
40537;SDS011;27925;41.874;12.526;2022-08-05T06:07:58;7.07;;;3.10;;
40537;SDS011;27925;41.874;12.526;2022-08-05T06:10:23;8.95;;;2.92;;
40537;SDS011;27925;41.874;12.526;2022-08-05T06:12:49;19.83;;;3.15;;
40537;SDS011;27925;41.874;12.526;2022-08-05T06:15:16;11.15;;;2.90;;
40537;SDS011;27925;41.874;12.526;2022-08-05T06:17:43;12.52;;;3.08;;
40537;SDS011;27925;41.874;12.526;2022-08-05T06:20:09;10.80;;;3.05;;
40537;SDS011;27925;41.874;12.526;2022-08-05T06:22:35;10.75;;;3.35;;
40537;SDS011;27925;41.874;12.526;2022-08-05T06:25:02;9.27;;;3.10;;
40537;SDS011;27925;41.874;12.526;2022-08-05T06:27:30;15.05;;;3.15;;
40537;SDS011;27925;41.874;12.526;2022-08-05T06:29:55;10.55;;;3.08;;
40537;SDS011;27925;41.874;12.526;2022-08-05T06:32:22;8.15;;;2.92;;
40537;SDS011;27925;41.874;12.526;2022-08-05T06:34:48;9.88;;;3.30;;
40537;SDS011;27925;41.874;12.526;2022-08-05T06:37:14;12.95;;;3.15;;
40537;SDS011;27925;41.874;12.526;2022-08-05T06:39:40;15.10;;;2.88;;
40537;SDS011;27925;41.874;12.526;2022-08-05T06:42:06;12.13;;;3.53;;
40537;SDS011;27925;41.874;12.526;2022-08-05T06:44:33;10.63;;;3.40;;
40537;SDS011;27925;41.874;12.526;2022-08-05T06:46:59;9.15;;;3.15;;
40537;SDS011;27925;41.874;12.526;2022-08-05T06:49:25;11.20;;;3.35;;
40537;SDS011;27925;41.874;12.526;2022-08-05T06:51:51;11.73;;;3.08;;
40537;SDS011;27925;41.874;12.526;2022-08-05T06:54:17;8.30;;;2.67;;
40537;SDS011;27925;41.874;12.526;2022-08-05T06:56:42;6.55;;;2.60;;
40537;SDS011;27925;41.874;12.526;2022-08-05T06:59:08;9.35;;;3.20;;
40537;SDS011;27925;41.874;12.526;2022-08-05T07:01:38;10.27;;;3.20;;
40537;SDS011;27925;41.874;12.526;2022-08-05T07:04:04;12.05;;;2.83;;
40537;SDS011;27925;41.874;12.526;2022-08-05T07:06:30;16.83;;;3.10;;
40537;SDS011;27925;41.874;12.526;2022-08-05T07:08:56;10.18;;;2.97;;
40537;SDS011;27925;41.874;12.526;2022-08-05T07:11:26;8.02;;;2.58;;
40537;SDS011;27925;41.874;12.526;2022-08-05T07:13:52;9.32;;;2.92;;
40537;SDS011;27925;41.874;12.526;2022-08-05T07:16:37;16.55;;;3.58;;
40537;SDS011;27925;41.874;12.526;2022-08-05T07:19:16;10.95;;;3.00;;
40537;SDS011;27925;41.874;12.526;2022-08-05T07:21:42;18.80;;;3.65;;
40537;SDS011;27925;41.874;12.526;2022-08-05T07:24:17;12.05;;;2.90;;
40537;SDS011;27925;41.874;12.526;2022-08-05T07:26:43;8.57;;;2.95;;
40537;SDS011;27925;41.874;12.526;2022-08-05T07:29:10;12.32;;;3.40;;
40537;SDS011;27925;41.874;12.526;2022-08-05T07:31:37;12.23;;;2.78;;
40537;SDS011;27925;41.874;12.526;2022-08-05T07:34:03;8.02;;;3.00;;
40537;SDS011;27925;41.874;12.526;2022-08-05T07:36:32;8.45;;;3.40;;
40537;SDS011;27925;41.874;12.526;2022-08-05T07:38:59;14.50;;;2.85;;
40537;SDS011;27925;41.874;12.526;2022-08-05T07:41:25;4.72;;;2.30;;
40537;SDS011;27925;41.874;12.526;2022-08-05T07:43:51;5.57;;;2.63;;
40537;SDS011;27925;41.874;12.526;2022-08-05T07:46:18;10.90;;;2.95;;
40537;SDS011;27925;41.874;12.526;2022-08-05T07:48:43;9.27;;;2.75;;
40537;SDS011;27925;41.874;12.526;2022-08-05T07:51:09;10.57;;;2.85;;
40537;SDS011;27925;41.874;12.526;2022-08-05T07:53:35;10.63;;;2.80;;
40537;SDS011;27925;41.874;12.526;2022-08-05T07:56:02;16.98;;;3.22;;
40537;SDS011;27925;41.874;12.526;2022-08-05T07:58:28;8.48;;;2.80;;
40537;SDS011;27925;41.874;12.526;2022-08-05T08:00:54;8.02;;;2.50;;
40537;SDS011;27925;41.874;12.526;2022-08-05T08:03:20;6.45;;;2.30;;
40537;SDS011;27925;41.874;12.526;2022-08-05T08:05:46;6.90;;;2.88;;
40537;SDS011;27925;41.874;12.526;2022-08-05T08:08:15;8.20;;;2.33;;
40537;SDS011;27925;41.874;12.526;2022-08-05T08:10:41;9.48;;;2.55;;
40537;SDS011;27925;41.874;12.526;2022-08-05T08:13:07;9.43;;;2.90;;
40537;SDS011;27925;41.874;12.526;2022-08-05T08:15:32;7.70;;;2.78;;
40537;SDS011;27925;41.874;12.526;2022-08-05T08:17:58;8.23;;;2.90;;
40537;SDS011;27925;41.874;12.526;2022-08-05T08:20:24;8.43;;;2.72;;
40537;SDS011;27925;41.874;12.526;2022-08-05T08:22:54;7.63;;;3.03;;
40537;SDS011;27925;41.874;12.526;2022-08-05T08:25:22;7.28;;;3.05;;
40537;SDS011;27925;41.874;12.526;2022-08-05T08:27:48;8.77;;;2.83;;
40537;SDS011;27925;41.874;12.526;2022-08-05T08:30:14;9.82;;;2.75;;
40537;SDS011;27925;41.874;12.526;2022-08-05T08:32:40;7.95;;;2.90;;
40537;SDS011;27925;41.874;12.526;2022-08-05T08:35:06;7.18;;;2.60;;
40537;SDS011;27925;41.874;12.526;2022-08-05T08:37:32;9.38;;;2.60;;
40537;SDS011;27925;41.874;12.526;2022-08-05T08:39:58;7.28;;;2.55;;
40537;SDS011;27925;41.874;12.526;2022-08-05T08:42:24;8.43;;;2.45;;
40537;SDS011;27925;41.874;12.526;2022-08-05T08:44:51;4.50;;;2.17;;
40537;SDS011;27925;41.874;12.526;2022-08-05T08:47:22;3.80;;;1.85;;
40537;SDS011;27925;41.874;12.526;2022-08-05T08:49:52;5.03;;;2.10;;
40537;SDS011;27925;41.874;12.526;2022-08-05T08:52:22;5.97;;;2.00;;
40537;SDS011;27925;41.874;12.526;2022-08-05T08:54:50;4.53;;;2.15;;
40537;SDS011;27925;41.874;12.526;2022-08-05T08:57:17;5.57;;;2.17;;
40537;SDS011;27925;41.874;12.526;2022-08-05T08:59:43;7.05;;;2.55;;
40537;SDS011;27925;41.874;12.526;2022-08-05T09:02:10;10.77;;;2.65;;
40537;SDS011;27925;41.874;12.526;2022-08-05T09:04:36;10.75;;;2.53;;
40537;SDS011;27925;41.874;12.526;2022-08-05T09:07:03;6.50;;;2.70;;
40537;SDS011;27925;41.874;12.526;2022-08-05T09:09:30;16.92;;;3.10;;
40537;SDS011;27925;41.874;12.526;2022-08-05T09:11:57;9.90;;;2.72;;
40537;SDS011;27925;41.874;12.526;2022-08-05T09:14:23;6.72;;;2.40;;
40537;SDS011;27925;41.874;12.526;2022-08-05T09:16:49;7.57;;;2.40;;
40537;SDS011;27925;41.874;12.526;2022-08-05T09:19:15;8.57;;;2.70;;
40537;SDS011;27925;41.874;12.526;2022-08-05T09:21:41;6.22;;;2.08;;
40537;SDS011;27925;41.874;12.526;2022-08-05T09:24:07;6.93;;;2.60;;
40537;SDS011;27925;41.874;12.526;2022-08-05T09:26:36;6.40;;;2.40;;
40537;SDS011;27925;41.874;12.526;2022-08-05T09:29:04;7.43;;;2.80;;
40537;SDS011;27925;41.874;12.526;2022-08-05T09:31:32;6.53;;;2.78;;
40537;SDS011;27925;41.874;12.526;2022-08-05T09:34:05;7.15;;;2.50;;
40537;SDS011;27925;41.874;12.526;2022-08-05T09:36:51;6.55;;;2.15;;
40537;SDS011;27925;41.874;12.526;2022-08-05T09:39:18;10.13;;;2.70;;
40537;SDS011;27925;41.874;12.526;2022-08-05T09:41:57;6.70;;;2.00;;
40537;SDS011;27925;41.874;12.526;2022-08-05T09:44:32;4.28;;;2.05;;
40537;SDS011;27925;41.874;12.526;2022-08-05T09:47:06;11.45;;;2.25;;
40537;SDS011;27925;41.874;12.526;2022-08-05T09:49:47;5.07;;;2.03;;
40537;SDS011;27925;41.874;12.526;2022-08-05T09:52:31;6.75;;;2.17;;
40537;SDS011;27925;41.874;12.526;2022-08-05T09:54:59;13.18;;;2.95;;
40537;SDS011;27925;41.874;12.526;2022-08-05T09:57:28;10.80;;;2.47;;
40537;SDS011;27925;41.874;12.526;2022-08-05T10:00:07;4.63;;;2.33;;
40537;SDS011;27925;41.874;12.526;2022-08-05T10:02:38;8.65;;;2.10;;
40537;SDS011;27925;41.874;12.526;2022-08-05T10:05:10;4.37;;;1.83;;
40537;SDS011;27925;41.874;12.526;2022-08-05T10:07:42;4.25;;;2.13;;
40537;SDS011;27925;41.874;12.526;2022-08-05T10:10:31;3.95;;;1.80;;
40537;SDS011;27925;41.874;12.526;2022-08-05T10:13:02;5.38;;;2.15;;
40537;SDS011;27925;41.874;12.526;2022-08-05T10:20:34;4.05;;;2.03;;
40537;SDS011;27925;41.874;12.526;2022-08-05T10:23:11;8.13;;;2.10;;
40537;SDS011;27925;41.874;12.526;2022-08-05T10:25:41;5.68;;;2.10;;
40537;SDS011;27925;41.874;12.526;2022-08-05T10:28:07;8.90;;;2.03;;
40537;SDS011;27925;41.874;12.526;2022-08-05T10:30:34;10.27;;;1.73;;
40537;SDS011;27925;41.874;12.526;2022-08-05T10:33:01;6.38;;;1.85;;
40537;SDS011;27925;41.874;12.526;2022-08-05T10:35:27;7.13;;;2.00;;
40537;SDS011;27925;41.874;12.526;2022-08-05T10:37:54;7.18;;;2.00;;
40537;SDS011;27925;41.874;12.526;2022-08-05T10:40:24;6.40;;;1.98;;
40537;SDS011;27925;41.874;12.526;2022-08-05T10:43:08;8.43;;;1.88;;
40537;SDS011;27925;41.874;12.526;2022-08-05T10:45:56;5.38;;;1.48;;
40537;SDS011;27925;41.874;12.526;2022-08-05T10:48:33;4.25;;;1.77;;
40537;SDS011;27925;41.874;12.526;2022-08-05T10:51:02;6.32;;;2.05;;
40537;SDS011;27925;41.874;12.526;2022-08-05T10:53:35;5.28;;;1.70;;
40537;SDS011;27925;41.874;12.526;2022-08-05T10:56:03;5.13;;;2.05;;
40537;SDS011;27925;41.874;12.526;2022-08-05T10:58:32;4.65;;;1.90;;
40537;SDS011;27925;41.874;12.526;2022-08-05T11:00:59;4.63;;;1.30;;
40537;SDS011;27925;41.874;12.526;2022-08-05T11:03:28;2.63;;;1.58;;
40537;SDS011;27925;41.874;12.526;2022-08-05T11:06:02;3.35;;;1.88;;
40537;SDS011;27925;41.874;12.526;2022-08-05T11:08:28;6.75;;;2.10;;
40537;SDS011;27925;41.874;12.526;2022-08-05T11:10:54;7.50;;;1.85;;
40537;SDS011;27925;41.874;12.526;2022-08-05T11:13:39;11.50;;;1.77;;
40537;SDS011;27925;41.874;12.526;2022-08-05T11:16:21;8.10;;;1.98;;
40537;SDS011;27925;41.874;12.526;2022-08-05T11:18:47;8.32;;;1.60;;
40537;SDS011;27925;41.874;12.526;2022-08-05T11:21:49;3.67;;;1.75;;
40537;SDS011;27925;41.874;12.526;2022-08-05T11:24:15;6.40;;;2.00;;
40537;SDS011;27925;41.874;12.526;2022-08-05T11:26:41;5.68;;;1.48;;
40537;SDS011;27925;41.874;12.526;2022-08-05T11:29:32;3.55;;;1.40;;
40537;SDS011;27925;41.874;12.526;2022-08-05T11:32:22;8.40;;;1.55;;
40537;SDS011;27925;41.874;12.526;2022-08-05T11:34:53;7.07;;;1.63;;
40537;SDS011;27925;41.874;12.526;2022-08-05T11:41:24;7.75;;;1.70;;
40537;SDS011;27925;41.874;12.526;2022-08-05T11:43:25;2.97;;;1.50;;
40537;SDS011;27925;41.874;12.526;2022-08-05T11:45:51;5.05;;;1.90;;
40537;SDS011;27925;41.874;12.526;2022-08-05T11:48:17;5.47;;;1.60;;
40537;SDS011;27925;41.874;12.526;2022-08-05T11:50:43;8.88;;;2.05;;
40537;SDS011;27925;41.874;12.526;2022-08-05T11:53:11;3.70;;;1.70;;
40537;SDS011;27925;41.874;12.526;2022-08-05T11:55:36;8.27;;;2.13;;
40537;SDS011;27925;41.874;12.526;2022-08-05T11:58:23;11.77;;;1.77;;
40537;SDS011;27925;41.874;12.526;2022-08-05T12:01:06;7.28;;;1.52;;
40537;SDS011;27925;41.874;12.526;2022-08-05T12:03:54;3.22;;;1.60;;
40537;SDS011;27925;41.874;12.526;2022-08-05T12:06:22;7.07;;;2.38;;
40537;SDS011;27925;41.874;12.526;2022-08-05T12:08:56;5.03;;;1.73;;
40537;SDS011;27925;41.874;12.526;2022-08-05T12:11:24;3.88;;;1.50;;
40537;SDS011;27925;41.874;12.526;2022-08-05T12:13:55;3.70;;;2.40;;
40537;SDS011;27925;41.874;12.526;2022-08-05T12:16:23;5.65;;;3.22;;
40537;SDS011;27925;41.874;12.526;2022-08-05T12:18:51;3.47;;;1.38;;
40537;SDS011;27925;41.874;12.526;2022-08-05T12:21:20;4.40;;;1.60;;
40537;SDS011;27925;41.874;12.526;2022-08-05T12:26:32;9.60;;;1.58;;
40537;SDS011;27925;41.874;12.526;2022-08-05T12:29:24;2.47;;;1.30;;
40537;SDS011;27925;41.874;12.526;2022-08-05T12:31:57;4.25;;;1.60;;
40537;SDS011;27925;41.874;12.526;2022-08-05T12:34:31;6.28;;;1.63;;
40537;SDS011;27925;41.874;12.526;2022-08-05T12:37:01;8.13;;;1.83;;
40537;SDS011;27925;41.874;12.526;2022-08-05T12:39:34;2.55;;;1.30;;
40537;SDS011;27925;41.874;12.526;2022-08-05T12:42:01;5.95;;;1.20;;
40537;SDS011;27925;41.874;12.526;2022-08-05T12:44:27;4.13;;;1.40;;
40537;SDS011;27925;41.874;12.526;2022-08-05T12:46:54;6.18;;;1.60;;
40537;SDS011;27925;41.874;12.526;2022-08-05T12:49:21;5.57;;;1.20;;
40537;SDS011;27925;41.874;12.526;2022-08-05T12:51:51;6.25;;;1.98;;
40537;SDS011;27925;41.874;12.526;2022-08-05T12:54:20;3.95;;;1.33;;
40537;SDS011;27925;41.874;12.526;2022-08-05T12:56:54;5.80;;;1.48;;
40537;SDS011;27925;41.874;12.526;2022-08-05T12:59:28;7.43;;;1.58;;
40537;SDS011;27925;41.874;12.526;2022-08-05T13:02:02;4.88;;;1.50;;
40537;SDS011;27925;41.874;12.526;2022-08-05T13:04:31;5.75;;;1.40;;
40537;SDS011;27925;41.874;12.526;2022-08-05T13:06:58;3.08;;;1.38;;
40537;SDS011;27925;41.874;12.526;2022-08-05T13:09:26;7.97;;;1.40;;
40537;SDS011;27925;41.874;12.526;2022-08-05T13:12:06;4.95;;;1.20;;
40537;SDS011;27925;41.874;12.526;2022-08-05T13:14:44;3.70;;;1.05;;
40537;SDS011;27925;41.874;12.526;2022-08-05T13:19:40;5.05;;;1.30;;
40537;SDS011;27925;41.874;12.526;2022-08-05T13:22:06;4.88;;;1.50;;
40537;SDS011;27925;41.874;12.526;2022-08-05T13:24:32;5.75;;;1.80;;
40537;SDS011;27925;41.874;12.526;2022-08-05T13:26:58;5.97;;;1.40;;
40537;SDS011;27925;41.874;12.526;2022-08-05T13:29:25;7.20;;;1.65;;
40537;SDS011;27925;41.874;12.526;2022-08-05T13:31:50;6.57;;;1.50;;
40537;SDS011;27925;41.874;12.526;2022-08-05T13:34:16;5.50;;;1.60;;
40537;SDS011;27925;41.874;12.526;2022-08-05T13:36:42;5.20;;;1.50;;
40537;SDS011;27925;41.874;12.526;2022-08-05T13:39:08;3.42;;;1.40;;
40537;SDS011;27925;41.874;12.526;2022-08-05T13:41:34;4.38;;;1.42;;
40537;SDS011;27925;41.874;12.526;2022-08-05T13:44:02;3.22;;;1.38;;
40537;SDS011;27925;41.874;12.526;2022-08-05T13:46:27;4.82;;;1.40;;
40537;SDS011;27925;41.874;12.526;2022-08-05T13:48:54;2.95;;;1.58;;
40537;SDS011;27925;41.874;12.526;2022-08-05T13:51:32;7.07;;;1.45;;
40537;SDS011;27925;41.874;12.526;2022-08-05T13:53:58;5.03;;;1.88;;
40537;SDS011;27925;41.874;12.526;2022-08-05T13:56:24;7.32;;;1.67;;
40537;SDS011;27925;41.874;12.526;2022-08-05T13:58:51;2.75;;;1.60;;
40537;SDS011;27925;41.874;12.526;2022-08-05T14:01:17;6.35;;;1.48;;
40537;SDS011;27925;41.874;12.526;2022-08-05T14:03:42;4.78;;;1.48;;
40537;SDS011;27925;41.874;12.526;2022-08-05T14:06:29;4.40;;;1.38;;
40537;SDS011;27925;41.874;12.526;2022-08-05T14:08:55;8.25;;;1.40;;
40537;SDS011;27925;41.874;12.526;2022-08-05T14:11:22;4.70;;;1.30;;
40537;SDS011;27925;41.874;12.526;2022-08-05T14:13:48;3.97;;;1.85;;
40537;SDS011;27925;41.874;12.526;2022-08-05T14:16:14;3.55;;;1.55;;
40537;SDS011;27925;41.874;12.526;2022-08-05T14:18:40;2.88;;;1.40;;
40537;SDS011;27925;41.874;12.526;2022-08-05T14:21:05;4.57;;;1.40;;
40537;SDS011;27925;41.874;12.526;2022-08-05T14:23:31;3.85;;;1.35;;
40537;SDS011;27925;41.874;12.526;2022-08-05T14:25:57;2.75;;;1.40;;
40537;SDS011;27925;41.874;12.526;2022-08-05T14:28:23;3.45;;;1.30;;
40537;SDS011;27925;41.874;12.526;2022-08-05T14:30:48;4.47;;;1.60;;
40537;SDS011;27925;41.874;12.526;2022-08-05T14:33:14;4.13;;;1.40;;
40537;SDS011;27925;41.874;12.526;2022-08-05T14:35:41;3.80;;;1.33;;
40537;SDS011;27925;41.874;12.526;2022-08-05T14:38:06;4.97;;;1.38;;
40537;SDS011;27925;41.874;12.526;2022-08-05T14:40:32;5.70;;;1.60;;
40537;SDS011;27925;41.874;12.526;2022-08-05T14:42:58;4.10;;;1.80;;
40537;SDS011;27925;41.874;12.526;2022-08-05T14:45:24;4.30;;;1.40;;
40537;SDS011;27925;41.874;12.526;2022-08-05T14:47:49;8.15;;;1.55;;
40537;SDS011;27925;41.874;12.526;2022-08-05T14:50:15;3.80;;;1.90;;
40537;SDS011;27925;41.874;12.526;2022-08-05T14:52:42;7.95;;;1.95;;
40537;SDS011;27925;41.874;12.526;2022-08-05T14:55:07;4.03;;;1.52;;
40537;SDS011;27925;41.874;12.526;2022-08-05T14:57:34;6.80;;;1.80;;
40537;SDS011;27925;41.874;12.526;2022-08-05T15:00:00;5.47;;;1.70;;
40537;SDS011;27925;41.874;12.526;2022-08-05T15:02:26;6.32;;;1.70;;
40537;SDS011;27925;41.874;12.526;2022-08-05T15:04:53;3.08;;;1.50;;
40537;SDS011;27925;41.874;12.526;2022-08-05T15:07:19;7.57;;;1.60;;
40537;SDS011;27925;41.874;12.526;2022-08-05T15:09:44;5.28;;;1.33;;